Terminal Aerodrome Forecast
Issued by NWS Cleveland, OH

Home | Current Version | Previous Version | Graphics & Text | Print | Product List | Glossary On
Versions: 1 2 3 4 5 6 7 8 9 10 11 12 13
000
FTUS41 KCLE 300538
TAFYNG
TAF
KYNG 300538Z 3006/3106 23004KT P6SM SCT030 BKN080
      TEMPO 3006/3007 2SM -RA OVC030
     FM300700 25006KT P6SM SCT030 BKN080
      TEMPO 3007/3009 BKN030
     FM300900 27008KT P6SM BKN250
     FM301400 27012KT P6SM SKC
     FM310100 25006KT P6SM SKC=

USA.gov is the U.S. government's official web portal to all federal, state and local government web resources and services.